createdAt,value
2022-08-07T00:00:39.819Z,77.10
2022-08-07T00:03:08.927Z,77.30
2022-08-07T00:05:37.381Z,77.60
2022-08-07T00:08:05.587Z,77.70
2022-08-07T00:10:35.703Z,77.90
2022-08-07T00:13:17.440Z,77.90
2022-08-07T00:15:53.087Z,77.90
2022-08-07T00:18:24.110Z,77.90
2022-08-07T00:20:54.910Z,78.00
2022-08-07T00:23:24.967Z,78.30
2022-08-07T00:26:00.112Z,78.40
2022-08-07T00:28:31.661Z,78.80
2022-08-07T00:31:12.627Z,78.90
2022-08-07T00:33:47.804Z,79.20
2022-08-07T00:36:15.339Z,79.30
2022-08-07T00:38:44.284Z,79.40
2022-08-07T00:41:14.850Z,79.50
2022-08-07T00:44:01.580Z,79.60
2022-08-07T00:46:33.928Z,79.60
2022-08-07T00:49:02.876Z,79.70
2022-08-07T00:51:56.460Z,79.90
2022-08-07T00:54:19.904Z,80.40
2022-08-07T00:56:49.844Z,80.80
2022-08-07T00:59:35.491Z,81.20
2022-08-07T01:02:14.218Z,81.60
2022-08-07T01:04:58.414Z,81.50
2022-08-07T01:07:29.271Z,81.80
2022-08-07T01:10:06.946Z,81.90
2022-08-07T01:12:53.299Z,82.30
2022-08-07T01:15:35.541Z,82.40
2022-08-07T01:18:04.557Z,82.80
2022-08-07T01:20:43.201Z,83.10
2022-08-07T01:23:12.937Z,83.50
2022-08-07T01:25:55.535Z,83.90
2022-08-07T01:28:24.552Z,84.10
2022-08-07T01:30:56.234Z,84.90
2022-08-07T01:33:25.140Z,85.20
2022-08-07T01:36:12.733Z,85.40
2022-08-07T01:38:45.360Z,86.00
2022-08-07T01:41:26.117Z,86.10
2022-08-07T01:43:57.191Z,86.40
2022-08-07T01:46:26.350Z,86.90
2022-08-07T01:48:55.220Z,87.20
2022-08-07T01:52:01.898Z,87.60
2022-08-07T01:54:32.629Z,87.80
2022-08-07T01:57:09.631Z,88.20
2022-08-07T02:00:02.350Z,88.90
2022-08-07T02:03:18.504Z,89.30
2022-08-07T02:05:47.983Z,89.50
2022-08-07T02:08:27.916Z,89.40
2022-08-07T02:10:59.184Z,89.60
2022-08-07T02:13:57.786Z,89.80
2022-08-07T02:16:28.574Z,90.00
2022-08-07T02:19:05.611Z,90.00
2022-08-07T02:21:56.172Z,90.20
2022-08-07T02:24:25.219Z,90.50
2022-08-07T02:27:00.151Z,90.50
2022-08-07T02:29:30.596Z,90.60
2022-08-07T02:32:00.892Z,90.80
2022-08-07T02:34:30.043Z,91.00
2022-08-07T02:36:59.437Z,91.20
2022-08-07T02:39:42.872Z,91.30
2022-08-07T02:42:20.585Z,91.40
2022-08-07T02:44:52.233Z,91.30
2022-08-07T02:47:23.804Z,91.40
2022-08-07T02:49:59.675Z,91.50
2022-08-07T02:52:48.849Z,91.60
2022-08-07T02:55:27.589Z,91.70
2022-08-07T02:58:02.748Z,91.80
2022-08-07T03:00:35.663Z,91.80
2022-08-07T03:03:06.317Z,92.00
2022-08-07T03:05:37.888Z,92.20
2022-08-07T03:08:10.182Z,92.40
2022-08-07T03:10:46.440Z,92.60
2022-08-07T03:13:19.682Z,92.60
2022-08-07T03:15:56.680Z,92.90
2022-08-07T03:18:34.634Z,93.30
2022-08-07T03:21:08.742Z,93.00
2022-08-07T03:24:20.437Z,93.20
2022-08-07T03:26:33.066Z,93.40
2022-08-07T03:29:11.210Z,93.60
2022-08-07T03:31:46.135Z,93.80
2022-08-07T03:34:18.675Z,94.00
2022-08-07T03:36:53.353Z,94.10
2022-08-07T03:39:59.281Z,94.20
2022-08-07T03:42:12.559Z,94.30
2022-08-07T03:44:42.402Z,94.40
2022-08-07T03:47:15.416Z,94.60
2022-08-07T03:49:48.070Z,94.60
2022-08-07T03:52:27.286Z,94.90
2022-08-07T03:55:06.713Z,95.20
2022-08-07T03:58:35.020Z,95.50
2022-08-07T04:00:33.563Z,95.70
2022-08-07T04:03:03.808Z,96.00
2022-08-07T04:05:41.010Z,96.20
2022-08-07T04:08:18.692Z,96.50
2022-08-07T04:10:54.514Z,96.70
2022-08-07T04:14:10.348Z,96.80
2022-08-07T04:16:31.173Z,97.10
2022-08-07T04:19:03.735Z,97.20
2022-08-07T04:21:33.622Z,97.40
2022-08-07T04:24:07.611Z,97.40
2022-08-07T04:26:39.684Z,97.50
2022-08-07T04:29:11.438Z,97.50
2022-08-07T04:32:03.462Z,97.60
2022-08-07T04:34:33.220Z,97.70
2022-08-07T04:37:02.606Z,97.90
2022-08-07T04:39:35.810Z,98.10
2022-08-07T04:42:04.543Z,98.20
2022-08-07T04:44:33.806Z,98.30
2022-08-07T04:47:23.680Z,98.30
2022-08-07T04:50:23.291Z,98.30
2022-08-07T04:53:40.115Z,98.50
2022-08-07T04:58:13.821Z,98.40
2022-08-07T05:00:11.429Z,98.40
2022-08-07T05:02:11.350Z,98.50
2022-08-07T05:05:11.246Z,98.60
2022-08-07T05:07:55.504Z,98.70
2022-08-07T05:10:32.779Z,98.70
2022-08-07T05:14:52.968Z,98.70
2022-08-07T05:16:04.501Z,98.80
2022-08-07T05:19:03.612Z,98.90
2022-08-07T05:22:00.677Z,99.20
2022-08-07T05:24:24.568Z,99.20
2022-08-07T05:26:59.770Z,99.20
2022-08-07T05:29:48.093Z,99.00
2022-08-07T05:32:20.848Z,98.90
2022-08-07T05:34:50.145Z,98.80
2022-08-07T05:37:25.284Z,98.80
2022-08-07T05:40:16.465Z,98.70
2022-08-07T05:42:55.846Z,98.50
2022-08-07T05:45:46.432Z,98.50
2022-08-07T05:48:14.635Z,98.50
2022-08-07T05:50:45.798Z,98.40
2022-08-07T05:54:12.780Z,98.30
2022-08-07T05:56:06.277Z,98.20
2022-08-07T05:58:39.338Z,98.20
2022-08-07T06:01:12.117Z,98.10
2022-08-07T06:03:58.563Z,98.00
2022-08-07T06:06:32.660Z,97.90
2022-08-07T06:09:04.829Z,98.00
2022-08-07T06:11:34.903Z,97.90
2022-08-07T06:14:13.218Z,97.90
2022-08-07T06:16:56.024Z,97.90
2022-08-07T06:19:52.318Z,97.90
2022-08-07T06:22:23.482Z,97.90
2022-08-07T06:25:01.484Z,97.90
2022-08-07T06:27:44.440Z,97.80
2022-08-07T06:30:24.156Z,97.70
2022-08-07T06:33:00.216Z,97.60
2022-08-07T06:35:38.873Z,97.40
2022-08-07T06:38:19.335Z,97.40
2022-08-07T06:40:53.119Z,97.20
2022-08-07T06:43:24.501Z,97.10
2022-08-07T06:46:05.219Z,97.00
2022-08-07T06:48:42.074Z,96.90
2022-08-07T06:51:31.348Z,96.70
2022-08-07T06:55:27.357Z,96.50
2022-08-07T06:56:55.007Z,96.40
2022-08-07T07:00:12.603Z,96.20
2022-08-07T07:02:49.081Z,96.00
2022-08-07T07:05:12.678Z,95.90
2022-08-07T07:08:00.074Z,96.10
2022-08-07T07:10:34.682Z,95.70
2022-08-07T07:13:55.536Z,95.50
2022-08-07T07:16:19.484Z,95.20
2022-08-07T07:19:11.421Z,95.00
2022-08-07T07:22:05.152Z,94.70
2022-08-07T07:24:43.207Z,94.40
2022-08-07T07:27:35.260Z,94.20
2022-08-07T07:30:26.367Z,94.10
2022-08-07T07:33:02.466Z,93.90
2022-08-07T07:35:33.632Z,93.70
2022-08-07T07:38:13.467Z,93.40
2022-08-07T07:40:42.536Z,93.20
2022-08-07T07:43:18.440Z,92.90
2022-08-07T07:46:37.965Z,92.70
2022-08-07T07:48:39.649Z,92.50
2022-08-07T07:51:08.440Z,92.20
2022-08-07T07:53:51.289Z,92.10
2022-08-07T07:56:29.789Z,92.10
2022-08-07T07:59:04.192Z,91.80
2022-08-07T08:02:02.214Z,91.60
2022-08-07T08:04:25.747Z,91.40
2022-08-07T08:06:53.816Z,91.40
2022-08-07T08:09:25.048Z,91.10
2022-08-07T08:12:02.531Z,90.60
2022-08-07T08:14:34.149Z,89.60
2022-08-07T08:17:56.520Z,88.90
2022-08-07T08:20:19.429Z,87.60
2022-08-07T08:23:09.355Z,86.70
2022-08-07T08:25:58.410Z,85.40
2022-08-07T08:28:38.611Z,85.20
2022-08-07T08:31:13.830Z,84.70
2022-08-07T08:33:49.362Z,84.50
2022-08-07T08:36:25.623Z,83.80
2022-08-07T08:39:02.211Z,82.70
2022-08-07T08:41:58.682Z,82.60
2022-08-07T08:45:05.432Z,82.70
2022-08-07T08:47:52.278Z,82.00
2022-08-07T08:50:34.918Z,81.40
2022-08-07T08:53:19.145Z,80.30
2022-08-07T08:55:59.424Z,80.30
2022-08-07T08:58:36.214Z,79.90
2022-08-07T09:01:29.550Z,79.30
2022-08-07T09:04:11.216Z,79.30
2022-08-07T09:07:11.593Z,79.10
2022-08-07T09:09:48.094Z,78.40
2022-08-07T09:12:53.491Z,77.50
2022-08-07T09:16:23.467Z,76.90
2022-08-07T09:19:53.658Z,76.50
2022-08-07T09:24:28.242Z,75.10
2022-08-07T09:25:21.811Z,74.90
2022-08-07T09:28:01.703Z,73.40
2022-08-07T09:30:52.914Z,73.40
2022-08-07T09:33:57.672Z,73.10
2022-08-07T09:36:35.796Z,72.50
2022-08-07T09:39:55.093Z,73.30
2022-08-07T09:42:33.953Z,71.70
2022-08-07T09:47:24.493Z,71.70
2022-08-07T09:48:50.052Z,71.40
2022-08-07T09:52:15.934Z,70.60
2022-08-07T09:54:44.849Z,70.60
2022-08-07T09:57:32.842Z,69.70
2022-08-07T10:00:14.838Z,68.40
2022-08-07T10:04:06.049Z,68.00
2022-08-07T10:06:42.694Z,67.40
2022-08-07T10:09:42.656Z,66.90
2022-08-07T10:12:33.352Z,67.10
2022-08-07T10:15:37.650Z,66.80
2022-08-07T10:18:17.231Z,66.10
2022-08-07T10:21:19.726Z,65.80
2022-08-07T10:24:11.292Z,65.10
2022-08-07T10:27:12.066Z,65.80
2022-08-07T10:30:03.709Z,64.90
2022-08-07T10:32:53.369Z,64.10
2022-08-07T10:35:55.957Z,64.60
2022-08-07T10:38:48.238Z,64.70
2022-08-07T10:41:52.118Z,64.80
2022-08-07T10:44:38.337Z,65.90
2022-08-07T10:47:15.702Z,64.70
2022-08-07T10:49:54.266Z,64.60
2022-08-07T10:52:33.884Z,64.10
2022-08-07T10:55:38.000Z,62.90
2022-08-07T10:58:33.093Z,64.80
2022-08-07T11:01:23.674Z,66.10
2022-08-07T11:04:11.155Z,65.80
2022-08-07T11:07:58.604Z,65.40
2022-08-07T11:10:35.304Z,63.80
2022-08-07T11:14:41.755Z,63.00
2022-08-07T11:16:04.518Z,62.90
2022-08-07T11:18:50.700Z,62.60
2022-08-07T11:21:42.782Z,62.60
2022-08-07T11:24:36.390Z,62.70
2022-08-07T11:27:13.458Z,61.90
2022-08-07T11:30:17.863Z,62.10
2022-08-07T11:33:54.158Z,62.10
2022-08-07T11:36:16.681Z,62.00
2022-08-07T11:39:06.934Z,61.40
2022-08-07T11:42:02.156Z,60.70
2022-08-07T11:44:52.123Z,61.00
2022-08-07T11:47:56.144Z,61.10
2022-08-07T11:50:33.151Z,60.90
2022-08-07T11:53:15.631Z,60.90
2022-08-07T11:56:11.974Z,61.40
2022-08-07T12:00:10.042Z,61.50
2022-08-07T12:03:41.998Z,61.30
2022-08-07T12:06:39.638Z,60.60
2022-08-07T12:09:24.617Z,60.70
2022-08-07T12:12:12.537Z,60.80
2022-08-07T12:14:56.237Z,61.10
2022-08-07T12:17:59.344Z,60.90
2022-08-07T12:20:43.018Z,60.50
2022-08-07T12:23:37.355Z,60.60
2022-08-07T12:26:41.962Z,60.50
2022-08-07T12:29:42.554Z,60.70
2022-08-07T12:32:19.430Z,60.50
2022-08-07T12:34:55.626Z,59.70
2022-08-07T12:37:28.244Z,59.60
2022-08-07T12:40:44.891Z,59.70
2022-08-07T12:43:09.510Z,60.40
2022-08-07T12:46:04.325Z,60.30
2022-08-07T12:49:00.027Z,60.30
2022-08-07T12:51:50.872Z,60.20
2022-08-07T12:54:41.292Z,60.70
2022-08-07T12:57:11.301Z,60.10
2022-08-07T12:59:55.410Z,60.00
2022-08-07T13:02:49.627Z,60.10
2022-08-07T13:06:03.969Z,59.10
2022-08-07T13:08:38.468Z,59.40
2022-08-07T13:12:02.337Z,59.70
2022-08-07T13:14:37.856Z,59.30
2022-08-07T13:17:59.363Z,59.10
2022-08-07T13:20:52.016Z,58.70
2022-08-07T13:24:00.690Z,58.30
2022-08-07T13:26:32.459Z,57.30
2022-08-07T13:29:23.606Z,57.30
2022-08-07T13:32:32.619Z,57.40
2022-08-07T13:36:00.889Z,57.00
2022-08-07T13:38:41.899Z,57.60
2022-08-07T13:41:47.485Z,57.50
2022-08-07T13:44:25.902Z,55.70
2022-08-07T13:46:59.833Z,57.50
2022-08-07T13:50:32.783Z,57.40
2022-08-07T13:52:31.870Z,56.90
2022-08-07T13:55:13.208Z,57.50
2022-08-07T13:58:01.669Z,55.20
2022-08-07T14:00:50.689Z,56.30
2022-08-07T14:03:30.036Z,55.50
2022-08-07T14:06:13.386Z,54.80
2022-08-07T14:08:53.490Z,55.20
2022-08-07T14:11:22.660Z,54.00
2022-08-07T14:13:55.842Z,54.30
2022-08-07T14:16:33.395Z,54.70
2022-08-07T14:19:06.115Z,54.80
2022-08-07T14:22:02.933Z,54.80
2022-08-07T14:24:33.481Z,53.80
2022-08-07T14:28:09.605Z,52.40
2022-08-07T14:30:02.926Z,52.80
2022-08-07T14:32:48.114Z,52.30
2022-08-07T14:35:45.158Z,51.70
2022-08-07T14:38:26.279Z,52.90
2022-08-07T14:41:14.628Z,54.80
2022-08-07T14:43:57.909Z,52.30
2022-08-07T14:46:33.312Z,51.40
2022-08-07T14:49:55.724Z,47.40
2022-08-07T14:52:03.905Z,47.60
2022-08-07T14:54:42.181Z,47.90
2022-08-07T14:57:15.059Z,46.10
2022-08-07T15:00:04.498Z,45.00
2022-08-07T15:02:37.043Z,44.70
2022-08-07T15:05:20.033Z,44.70
2022-08-07T15:07:51.028Z,43.90
2022-08-07T15:13:17.817Z,42.60
2022-08-07T15:15:52.562Z,41.90
2022-08-07T15:18:36.149Z,41.70
2022-08-07T15:21:44.368Z,40.90
2022-08-07T15:27:15.375Z,38.50
2022-08-07T15:32:40.026Z,40.70
2022-08-07T15:36:04.905Z,41.10
2022-08-07T15:38:30.152Z,40.30
2022-08-07T15:44:07.437Z,40.70
2022-08-07T15:50:05.069Z,38.90
2022-08-07T15:52:30.122Z,38.40
2022-08-07T15:55:04.161Z,38.20
2022-08-07T15:57:47.527Z,37.70
2022-08-07T16:00:22.762Z,37.80
2022-08-07T16:03:47.322Z,37.80
2022-08-07T16:06:11.575Z,37.40
2022-08-07T16:08:45.700Z,38.40
2022-08-07T16:11:55.086Z,39.00
2022-08-07T16:14:59.612Z,39.10
2022-08-07T16:18:02.108Z,39.10
2022-08-07T16:20:41.630Z,38.60
2022-08-07T16:23:54.515Z,38.60
2022-08-07T16:26:30.792Z,38.50
2022-08-07T16:30:07.246Z,39.00
2022-08-07T16:32:32.773Z,39.60
2022-08-07T16:35:51.553Z,40.50
2022-08-07T16:39:06.065Z,41.00
2022-08-07T16:42:02.959Z,41.80
2022-08-07T16:45:14.363Z,42.50
2022-08-07T16:48:07.811Z,42.90
2022-08-07T16:51:54.394Z,44.30
2022-08-07T16:54:32.692Z,44.20
2022-08-07T16:58:02.411Z,44.20
2022-08-07T17:00:29.662Z,44.90
2022-08-07T17:03:17.596Z,45.40
2022-08-07T17:06:29.058Z,45.70
2022-08-07T17:10:06.184Z,46.00
2022-08-07T17:12:34.069Z,45.90
2022-08-07T17:15:18.239Z,46.40
2022-08-07T17:17:48.252Z,46.70
2022-08-07T17:20:31.916Z,47.00
2022-08-07T17:23:37.439Z,47.30
2022-08-07T17:26:22.847Z,48.40
2022-08-07T17:29:06.190Z,49.20
2022-08-07T17:32:03.351Z,49.40
2022-08-07T17:35:32.854Z,49.60
2022-08-07T17:38:09.297Z,49.40
2022-08-07T17:42:02.331Z,50.00
2022-08-07T17:44:05.817Z,50.00
2022-08-07T17:46:52.410Z,49.90
2022-08-07T17:49:44.908Z,50.10
2022-08-07T17:52:21.795Z,50.40
2022-08-07T17:56:00.297Z,50.50
2022-08-07T17:58:08.721Z,50.50
2022-08-07T18:00:49.022Z,50.40
2022-08-07T18:03:28.759Z,50.50
2022-08-07T18:06:38.429Z,50.90
2022-08-07T18:09:08.667Z,50.90
2022-08-07T18:12:07.680Z,50.80
2022-08-07T18:14:46.161Z,50.30
2022-08-07T18:18:33.172Z,50.30
2022-08-07T18:21:09.407Z,50.70
2022-08-07T18:23:43.297Z,51.00
2022-08-07T18:26:24.843Z,51.00
2022-08-07T18:30:04.227Z,51.00
2022-08-07T18:32:46.094Z,51.20
2022-08-07T18:35:15.745Z,51.50
2022-08-07T18:38:56.217Z,51.40
2022-08-07T18:40:53.839Z,51.50
2022-08-07T18:44:05.582Z,51.70
2022-08-07T18:47:21.003Z,51.90
2022-08-07T18:50:38.626Z,51.90
2022-08-07T18:53:13.857Z,52.20
2022-08-07T18:55:59.951Z,52.60
2022-08-07T18:58:38.319Z,52.60
2022-08-07T19:01:09.064Z,53.00
2022-08-07T19:04:37.929Z,53.10
2022-08-07T19:07:34.444Z,53.20
2022-08-07T19:10:18.202Z,53.10
2022-08-07T19:13:10.053Z,53.40
2022-08-07T19:16:05.403Z,53.60
2022-08-07T19:19:04.765Z,53.90
2022-08-07T19:21:53.584Z,54.20
2022-08-07T19:24:52.936Z,54.40
2022-08-07T19:28:29.920Z,54.80
2022-08-07T19:31:05.188Z,55.10
2022-08-07T19:33:10.219Z,55.40
2022-08-07T19:35:45.673Z,55.60
2022-08-07T19:38:17.684Z,55.90
2022-08-07T19:40:50.271Z,56.10
2022-08-07T19:43:48.913Z,56.60
2022-08-07T19:46:15.894Z,56.80
2022-08-07T19:48:53.545Z,57.20
2022-08-07T19:51:53.054Z,57.70
2022-08-07T19:54:33.335Z,58.10
2022-08-07T19:57:59.758Z,58.60
2022-08-07T20:00:03.597Z,58.70
2022-08-07T20:02:39.167Z,59.00
2022-08-07T20:05:09.675Z,59.30
2022-08-07T20:07:47.397Z,59.50
2022-08-07T20:10:35.275Z,59.50
2022-08-07T20:13:51.934Z,59.60
2022-08-07T20:16:35.738Z,60.70
2022-08-07T20:19:11.093Z,60.00
2022-08-07T20:21:48.277Z,60.10
2022-08-07T20:24:22.949Z,60.30
2022-08-07T20:26:54.788Z,60.50
2022-08-07T20:29:49.346Z,60.80
2022-08-07T20:32:26.740Z,61.00
2022-08-07T20:35:26.403Z,61.20
2022-08-07T20:37:59.718Z,62.10
2022-08-07T20:40:37.239Z,61.70
2022-08-07T20:43:19.229Z,61.80
2022-08-07T20:46:28.096Z,61.80
2022-08-07T20:48:58.027Z,62.10
2022-08-07T20:51:31.387Z,62.30
2022-08-07T20:54:12.011Z,62.30
2022-08-07T20:56:48.229Z,62.60
2022-08-07T21:00:04.782Z,62.60
2022-08-07T21:02:34.650Z,62.90
2022-08-07T21:05:04.466Z,63.30
2022-08-07T21:07:38.374Z,63.20
2022-08-07T21:10:13.699Z,63.40
2022-08-07T21:12:45.118Z,63.60
2022-08-07T21:15:18.870Z,63.70
2022-08-07T21:18:09.036Z,63.80
2022-08-07T21:20:40.035Z,64.10
2022-08-07T21:23:26.195Z,64.90
2022-08-07T21:26:03.463Z,64.30
2022-08-07T21:28:48.850Z,64.40
2022-08-07T21:32:42.111Z,64.40
2022-08-07T21:34:46.228Z,64.50
2022-08-07T21:37:58.808Z,64.70
2022-08-07T21:40:41.566Z,64.90
2022-08-07T21:43:17.120Z,64.90
2022-08-07T21:46:08.842Z,64.90
2022-08-07T21:49:14.503Z,65.20
2022-08-07T21:52:04.133Z,65.20
2022-08-07T21:54:34.098Z,65.40
2022-08-07T21:57:39.913Z,65.60
2022-08-07T22:00:22.146Z,65.70
2022-08-07T22:03:31.962Z,65.80
2022-08-07T22:06:06.056Z,66.00
2022-08-07T22:08:54.612Z,66.10
2022-08-07T22:11:24.473Z,66.40
2022-08-07T22:14:01.053Z,66.40
2022-08-07T22:16:53.707Z,66.60
2022-08-07T22:19:29.656Z,66.80
2022-08-07T22:22:17.782Z,66.80
2022-08-07T22:25:08.303Z,67.10
2022-08-07T22:28:29.611Z,67.20
2022-08-07T22:31:45.433Z,67.30
2022-08-07T22:34:52.902Z,67.50
2022-08-07T22:38:02.879Z,67.60
2022-08-07T22:40:47.156Z,67.80
2022-08-07T22:43:19.492Z,68.10
2022-08-07T22:46:41.007Z,68.20
2022-08-07T22:49:21.805Z,68.50
2022-08-07T22:52:11.020Z,68.40
2022-08-07T22:54:41.564Z,68.80
2022-08-07T22:57:53.824Z,68.80
2022-08-07T23:00:53.948Z,69.10
2022-08-07T23:04:03.449Z,70.10
2022-08-07T23:06:51.482Z,69.60
2022-08-07T23:10:01.196Z,69.80
2022-08-07T23:13:14.322Z,70.10
2022-08-07T23:16:07.069Z,70.30
2022-08-07T23:19:19.487Z,70.60
2022-08-07T23:22:39.085Z,70.50
2022-08-07T23:25:18.703Z,71.00
2022-08-07T23:28:20.386Z,71.00
2022-08-07T23:32:48.597Z,71.00
2022-08-07T23:34:38.215Z,71.10
2022-08-07T23:37:20.020Z,71.20
2022-08-07T23:39:55.569Z,71.40
2022-08-07T23:43:00.656Z,71.60
2022-08-07T23:46:02.957Z,71.90
2022-08-07T23:48:40.861Z,72.10
2022-08-07T23:52:57.891Z,72.20
2022-08-07T23:54:44.628Z,72.50
2022-08-07T23:57:27.535Z,72.80
